createdAt,value
2023-01-13T00:03:31.596Z,987.6
2023-01-13T00:08:31.678Z,987.6
2023-01-13T00:13:31.604Z,987.7
2023-01-13T00:18:31.654Z,988.0
2023-01-13T00:23:31.606Z,987.8
2023-01-13T00:28:31.691Z,988.0
2023-01-13T00:33:31.592Z,987.9
2023-01-13T00:38:31.687Z,987.9
2023-01-13T00:43:31.593Z,987.9
2023-01-13T00:48:31.681Z,987.8
2023-01-13T00:53:31.594Z,987.7
2023-01-13T00:58:31.673Z,987.8
2023-01-13T01:03:31.604Z,987.9
2023-01-13T01:08:31.656Z,987.8
2023-01-13T01:13:31.603Z,987.8
2023-01-13T01:18:31.660Z,987.8
2023-01-13T01:23:31.609Z,987.8
2023-01-13T01:28:31.656Z,987.7
2023-01-13T01:33:31.611Z,987.8
2023-01-13T01:38:31.654Z,987.8
2023-01-13T01:43:31.653Z,987.7
2023-01-13T01:48:31.663Z,987.9
2023-01-13T01:53:31.603Z,987.8
2023-01-13T01:58:31.657Z,987.9
2023-01-13T02:03:31.609Z,987.9
2023-01-13T02:08:31.678Z,987.8
2023-01-13T02:13:31.605Z,987.8
2023-01-13T02:18:31.694Z,987.9
2023-01-13T02:23:31.601Z,987.8
2023-01-13T02:28:31.727Z,987.9
2023-01-13T02:33:31.617Z,987.6
2023-01-13T02:38:31.705Z,987.4
2023-01-13T02:43:31.618Z,987.5
2023-01-13T02:48:31.714Z,987.6
2023-01-13T02:53:31.608Z,987.6
2023-01-13T02:58:31.704Z,987.6
2023-01-13T03:03:31.588Z,987.6
2023-01-13T03:08:31.678Z,987.9
2023-01-13T03:13:31.616Z,987.7
2023-01-13T03:18:31.653Z,987.7
2023-01-13T03:23:31.579Z,987.9
2023-01-13T03:28:31.655Z,987.9
2023-01-13T03:33:31.586Z,987.9
2023-01-13T03:38:31.655Z,988.0
2023-01-13T03:43:31.598Z,988.0
2023-01-13T03:48:31.661Z,988.2
2023-01-13T03:53:31.592Z,988.1
2023-01-13T03:58:31.657Z,988.3
2023-01-13T04:03:31.670Z,988.1
2023-01-13T04:08:31.665Z,988.2
2023-01-13T04:13:31.599Z,988.4
2023-01-13T04:18:31.661Z,988.4
2023-01-13T04:23:31.583Z,988.6
2023-01-13T04:28:31.656Z,988.7
2023-01-13T04:33:31.603Z,988.6
2023-01-13T04:38:31.659Z,988.5
2023-01-13T04:43:31.610Z,988.7
2023-01-13T04:48:31.687Z,988.7
2023-01-13T04:53:31.607Z,988.8
2023-01-13T04:58:31.771Z,988.8
2023-01-13T05:03:31.634Z,988.8
2023-01-13T05:08:31.711Z,988.8
2023-01-13T05:13:31.632Z,989.3
2023-01-13T05:18:31.718Z,989.1
2023-01-13T05:23:31.633Z,989.2
2023-01-13T05:28:31.714Z,989.2
2023-01-13T05:33:32.155Z,989.2
2023-01-13T05:38:31.718Z,989.3
2023-01-13T05:43:31.624Z,989.4
2023-01-13T05:48:31.724Z,989.4
2023-01-13T05:53:31.646Z,989.6
2023-01-13T05:58:31.686Z,989.7
2023-01-13T06:03:31.631Z,989.8
2023-01-13T06:08:31.733Z,989.9
2023-01-13T06:13:31.649Z,990.0
2023-01-13T06:18:31.691Z,990.2
2023-01-13T06:23:31.632Z,990.2
2023-01-13T06:28:31.747Z,990.3
2023-01-13T06:33:31.654Z,990.5
2023-01-13T06:38:31.693Z,990.6
2023-01-13T06:43:31.637Z,990.7
2023-01-13T06:48:31.747Z,990.9
2023-01-13T06:53:31.656Z,990.9
2023-01-13T06:58:31.748Z,990.9
2023-01-13T07:03:31.662Z,991.1
2023-01-13T07:08:31.752Z,991.2
2023-01-13T07:13:31.655Z,991.3
2023-01-13T07:18:31.968Z,991.4
2023-01-13T07:23:31.686Z,991.6
2023-01-13T07:28:31.819Z,991.7
2023-01-13T07:33:31.686Z,991.8
2023-01-13T07:38:31.837Z,992.1
2023-01-13T07:43:31.748Z,992.1
2023-01-13T07:48:31.844Z,992.2
2023-01-13T07:53:31.729Z,992.3
2023-01-13T07:58:31.883Z,992.6
2023-01-13T08:03:31.749Z,992.7
2023-01-13T08:08:31.883Z,992.8
2023-01-13T08:13:31.770Z,993.0
2023-01-13T08:18:31.877Z,993.1
2023-01-13T08:23:31.770Z,993.2
2023-01-13T08:28:31.845Z,993.5
2023-01-13T08:33:31.751Z,993.5
2023-01-13T08:38:31.852Z,993.6
2023-01-13T08:43:31.794Z,993.8
2023-01-13T08:48:31.898Z,994.1
2023-01-13T08:53:31.792Z,994.3
2023-01-13T08:58:31.885Z,994.4
2023-01-13T09:03:31.821Z,994.4
2023-01-13T09:08:31.868Z,994.4
2023-01-13T09:13:31.788Z,994.8
2023-01-13T09:18:31.871Z,994.7
2023-01-13T09:23:31.785Z,995.0
2023-01-13T09:28:31.846Z,994.9
2023-01-13T09:33:31.787Z,995.1
2023-01-13T09:38:31.833Z,995.1
2023-01-13T09:43:31.782Z,995.1
2023-01-13T09:48:31.849Z,995.2
2023-01-13T09:53:31.899Z,995.2
2023-01-13T09:58:31.959Z,995.3
2023-01-13T10:03:31.883Z,995.4
2023-01-13T10:08:31.901Z,995.6
2023-01-13T10:13:31.858Z,995.6
2023-01-13T10:18:31.967Z,995.6
2023-01-13T10:23:31.860Z,995.8
2023-01-13T10:28:31.976Z,996.0
2023-01-13T10:33:31.860Z,996.0
2023-01-13T10:38:31.965Z,996.1
2023-01-13T10:43:31.843Z,996.3
2023-01-13T10:48:31.976Z,996.2
2023-01-13T10:53:31.854Z,996.5
2023-01-13T10:58:31.949Z,996.6
2023-01-13T11:03:31.846Z,996.9
2023-01-13T11:08:31.963Z,996.8
2023-01-13T11:13:31.868Z,996.8
2023-01-13T11:18:31.946Z,997.0
2023-01-13T11:23:31.841Z,997.1
2023-01-13T11:28:31.947Z,997.2
2023-01-13T11:33:31.853Z,997.4
2023-01-13T11:38:32.007Z,997.5
2023-01-13T11:43:31.912Z,997.5
2023-01-13T11:48:32.037Z,997.8
2023-01-13T11:53:31.917Z,997.7
2023-01-13T11:58:38.746Z,997.9
2023-01-13T12:03:32.005Z,998.0
2023-01-13T12:08:32.021Z,998.2
2023-01-13T12:13:31.923Z,998.3
2023-01-13T12:18:32.021Z,998.4
2023-01-13T12:23:31.906Z,998.6
2023-01-13T12:28:32.038Z,998.6
2023-01-13T12:33:31.901Z,998.6
2023-01-13T12:38:34.325Z,998.8
2023-01-13T12:43:31.945Z,998.8
2023-01-13T12:48:32.085Z,999.0
2023-01-13T12:53:31.956Z,999.0
2023-01-13T12:58:32.100Z,999.2
2023-01-13T13:03:31.974Z,999.2
2023-01-13T13:08:32.100Z,999.5
2023-01-13T13:13:31.972Z,999.4
2023-01-13T13:18:32.047Z,999.6
2023-01-13T13:23:31.979Z,999.7
2023-01-13T13:28:32.077Z,999.7
2023-01-13T13:33:31.975Z,999.9
2023-01-13T13:38:32.098Z,1000.0
2023-01-13T13:43:32.082Z,1000.0
2023-01-13T13:48:32.059Z,1000.2
2023-01-13T13:53:32.017Z,1000.2
2023-01-13T13:58:32.115Z,1000.4
2023-01-13T14:03:32.021Z,1000.4
2023-01-13T14:08:32.087Z,1000.5
2023-01-13T14:13:32.001Z,1000.6
2023-01-13T14:18:32.079Z,1000.7
2023-01-13T14:23:31.998Z,1000.8
2023-01-13T14:28:32.075Z,1001.0
2023-01-13T14:33:32.002Z,1001.0
2023-01-13T14:38:32.075Z,1001.0
2023-01-13T14:43:31.989Z,1001.2
2023-01-13T14:48:32.067Z,1001.2
2023-01-13T14:53:31.980Z,1001.3
2023-01-13T14:58:32.075Z,1001.4
2023-01-13T15:03:31.976Z,1001.6
2023-01-13T15:08:33.993Z,1001.6
2023-01-13T15:13:31.996Z,1001.7
2023-01-13T15:18:32.073Z,1001.7
2023-01-13T15:23:31.970Z,1001.9
2023-01-13T15:28:32.042Z,1002.0
2023-01-13T15:33:31.976Z,1002.2
2023-01-13T15:38:32.041Z,1002.2
2023-01-13T15:43:31.979Z,1002.3
2023-01-13T15:48:32.083Z,1002.5
2023-01-13T15:53:31.959Z,1002.7
2023-01-13T15:58:32.053Z,1002.8
2023-01-13T16:03:31.992Z,1002.9
2023-01-13T16:08:32.097Z,1003.0
2023-01-13T16:13:31.993Z,1003.1
2023-01-13T16:18:32.138Z,1003.3
2023-01-13T16:23:32.060Z,1003.4
2023-01-13T16:28:32.205Z,1003.5
2023-01-13T16:33:32.119Z,1003.6
2023-01-13T16:38:32.240Z,1003.8
2023-01-13T16:43:32.322Z,1003.8
2023-01-13T16:48:32.267Z,1003.9
2023-01-13T16:53:32.144Z,1004.0
2023-01-13T16:58:32.228Z,1004.0
2023-01-13T17:03:32.261Z,1004.0
2023-01-13T17:08:32.277Z,1004.1
2023-01-13T17:13:32.143Z,1004.1
2023-01-13T17:18:33.208Z,1004.2
2023-01-13T17:23:32.195Z,1004.3
2023-01-13T17:28:32.257Z,1004.4
2023-01-13T17:33:32.177Z,1004.3
2023-01-13T17:38:32.224Z,1004.2
2023-01-13T17:43:32.176Z,1004.3
2023-01-13T17:48:32.227Z,1004.5
2023-01-13T17:53:32.212Z,1004.5
2023-01-13T17:58:32.286Z,1004.6
2023-01-13T18:03:32.201Z,1004.5
2023-01-13T18:08:32.261Z,1004.6
2023-01-13T18:13:32.197Z,1004.7
2023-01-13T18:18:32.230Z,1004.8
2023-01-13T18:23:32.196Z,1004.6
2023-01-13T18:28:32.237Z,1004.7
2023-01-13T18:33:32.165Z,1004.8
2023-01-13T18:38:32.267Z,1004.9
2023-01-13T18:43:32.165Z,1004.9
2023-01-13T18:48:32.273Z,1005.1
2023-01-13T18:53:32.231Z,1005.1
2023-01-13T18:58:32.357Z,1005.2
2023-01-13T19:03:32.191Z,1005.2
2023-01-13T19:08:32.289Z,1005.3
2023-01-13T19:13:32.197Z,1005.3
2023-01-13T19:18:32.292Z,1005.3
2023-01-13T19:23:32.229Z,1005.3
2023-01-13T19:28:32.380Z,1005.3
2023-01-13T19:33:32.213Z,1005.5
2023-01-13T19:38:32.372Z,1005.5
2023-01-13T19:43:32.264Z,1005.6
2023-01-13T19:48:32.380Z,1005.7
2023-01-13T19:53:32.306Z,1005.7
2023-01-13T19:58:32.433Z,1005.9
2023-01-13T20:03:32.285Z,1006.0
2023-01-13T20:08:32.446Z,1006.0
2023-01-13T20:13:32.316Z,1006.1
2023-01-13T20:18:32.392Z,1006.0
2023-01-13T20:23:32.313Z,1006.1
2023-01-13T20:28:32.391Z,1005.9
2023-01-13T20:33:32.329Z,1005.9
2023-01-13T20:38:32.394Z,1005.7
2023-01-13T20:43:32.287Z,1005.8
2023-01-13T20:48:32.400Z,1005.7
2023-01-13T20:53:32.325Z,1005.7
2023-01-13T20:58:32.439Z,1005.7
2023-01-13T21:03:32.356Z,1005.8
2023-01-13T21:08:32.437Z,1005.7
2023-01-13T21:13:32.340Z,1005.6
2023-01-13T21:18:32.387Z,1005.5
2023-01-13T21:23:32.358Z,1005.6
2023-01-13T21:28:32.385Z,1005.7
2023-01-13T21:33:32.352Z,1005.6
2023-01-13T21:38:32.425Z,1005.5
2023-01-13T21:43:32.333Z,1005.3
2023-01-13T21:48:32.405Z,1005.4
2023-01-13T21:53:32.334Z,1005.1
2023-01-13T21:58:32.419Z,1005.0
2023-01-13T22:03:32.309Z,1004.8
2023-01-13T22:08:32.392Z,1004.7
2023-01-13T22:13:32.333Z,1004.8
2023-01-13T22:18:32.393Z,1004.7
2023-01-13T22:23:32.322Z,1004.7
2023-01-13T22:28:32.432Z,1004.8
2023-01-13T22:33:32.332Z,1004.7
2023-01-13T22:38:32.397Z,1004.6
2023-01-13T22:43:32.376Z,1004.5
2023-01-13T22:48:32.407Z,1004.5
2023-01-13T22:53:32.384Z,1004.4
2023-01-13T22:58:32.477Z,1004.4
2023-01-13T23:03:32.441Z,1004.5
2023-01-13T23:08:32.458Z,1004.5
2023-01-13T23:13:32.513Z,1004.5
2023-01-13T23:18:32.488Z,1004.5
2023-01-13T23:23:32.403Z,1004.4
2023-01-13T23:28:32.526Z,1004.2
2023-01-13T23:33:32.391Z,1004.1
2023-01-13T23:38:32.476Z,1004.0
2023-01-13T23:43:32.392Z,1003.9
2023-01-13T23:48:32.548Z,1003.9
2023-01-13T23:53:32.482Z,1003.9
2023-01-13T23:58:32.579Z,1003.8
